Time;durP1;ratioP1;P1;durP2;ratioP2;P2;SDS_P1;SDS_P2;PMS_P1;PMS_P2;Temp;Humidity;BMP_temperature;BMP_pressure;BME280_temperature;BME280_humidity;BME280_pressure;Samples;Min_cycle;Max_cycle;Signal;HPM_P1;HPM_P2
2022/03/09 00:00:08;;;;;;;;;;;0.90;97.10;;;;;;5050137;28;19931;-82
2022/03/09 00:02:34;;;;;;;;;;;0.90;96.90;;;;;;5052629;28;20070;-83
2022/03/09 00:04:59;;;;;;;;;;;0.90;96.70;;;;;;5055516;28;19943;-84
2022/03/09 00:07:27;;;;;;;;;;;0.80;96.60;;;;;;5054416;28;20053;-84
2022/03/09 00:09:52;;;;;;;;;;;0.80;96.70;;;;;;5054136;28;19962;-83
2022/03/09 00:12:18;;;;;;;;;;;0.80;96.70;;;;;;5071513;28;20049;-84
2022/03/09 00:14:43;;;;;;;;;;;0.70;96.60;;;;;;5056166;28;20469;-83
2022/03/09 00:17:09;;;;;;;;;;;0.60;96.90;;;;;;5054679;28;20140;-84
2022/03/09 00:19:35;;;;;;;;;;;0.60;96.70;;;;;;5054451;28;19927;-84
2022/03/09 00:22:00;;;;;;;;;;;0.50;96.80;;;;;;5055532;28;20040;-84
2022/03/09 00:24:26;;;;;;;;;;;0.40;97.20;;;;;;5054255;28;20028;-83
2022/03/09 00:26:52;;;;;;;;;;;0.40;97.50;;;;;;5072996;28;20043;-83
2022/03/09 00:29:17;;;;;;;;;;;0.30;97.80;;;;;;5055567;28;20122;-85
2022/03/09 00:31:43;;;;;;;;;;;0.20;97.90;;;;;;5054559;28;20043;-84
2022/03/09 00:34:08;;;;;;;;;;;0.10;98.10;;;;;;5054865;28;19964;-83
2022/03/09 00:36:34;;;;;;;;;;;0.10;98.20;;;;;;5053787;28;20502;-85
2022/03/09 00:39:00;;;;;;;;;;;0.10;98.50;;;;;;5054048;28;20054;-86
2022/03/09 00:41:26;;;;;;;;;;;-0.10;98.70;;;;;;5054063;28;20003;-83
2022/03/09 00:43:52;;;;;;;;;;;-0.10;98.90;;;;;;5054561;28;19969;-83
2022/03/09 00:46:18;;;;;;;;;;;-0.20;99.00;;;;;;5053651;28;20033;-84
2022/03/09 00:48:44;;;;;;;;;;;-0.20;99.10;;;;;;5052510;28;20036;-84
2022/03/09 00:51:09;;;;;;;;;;;-0.10;99.40;;;;;;5054766;28;19919;-83
2022/03/09 00:53:35;;;;;;;;;;;-0.10;99.40;;;;;;5074315;28;20024;-83
2022/03/09 00:56:00;;;;;;;;;;;-0.20;99.80;;;;;;5074606;28;19920;-84
2022/03/09 00:58:27;;;;;;;;;;;-0.30;99.90;;;;;;5056830;28;19942;-82
2022/03/09 01:00:52;;;;;;;;;;;-0.40;99.90;;;;;;5054115;28;20044;-84
2022/03/09 01:03:21;;;;;;;;;;;-0.40;99.90;;;;;;5054030;28;19918;-83
2022/03/09 01:05:47;;;;;;;;;;;-0.50;99.90;;;;;;5053484;28;20058;-81
2022/03/09 01:08:13;;;;;;;;;;;-0.50;99.90;;;;;;5072365;28;20054;-83
2022/03/09 01:10:39;;;;;;;;;;;-0.50;99.90;;;;;;5053949;28;20049;-84
2022/03/09 01:13:05;;;;;;;;;;;-0.60;99.90;;;;;;5052703;28;19938;-84
2022/03/09 01:15:30;;;;;;;;;;;-0.70;99.90;;;;;;5054048;28;20074;-84
2022/03/09 01:17:56;;;;;;;;;;;-0.70;99.90;;;;;;5053771;28;20313;-82
2022/03/09 01:20:22;;;;;;;;;;;-0.80;99.90;;;;;;5054273;28;20007;-84
2022/03/09 01:22:48;;;;;;;;;;;-0.80;99.90;;;;;;5086649;28;20048;-82
2022/03/09 01:25:13;;;;;;;;;;;-0.90;99.90;;;;;;5057583;28;20042;-82
2022/03/09 01:27:39;;;;;;;;;;;-0.90;99.90;;;;;;5064984;28;19971;-83
2022/03/09 01:30:05;;;;;;;;;;;-1.00;99.90;;;;;;5064944;28;20032;-83
2022/03/09 01:32:31;;;;;;;;;;;-1.00;99.90;;;;;;5058161;28;19924;-83
2022/03/09 01:34:56;;;;;;;;;;;-0.90;99.90;;;;;;5053565;28;20385;-83
2022/03/09 01:37:22;;;;;;;;;;;-1.00;99.90;;;;;;5052763;28;20659;-84
2022/03/09 01:39:48;;;;;;;;;;;-1.00;99.90;;;;;;5052746;28;20046;-83
2022/03/09 01:42:13;;;;;;;;;;;-1.10;99.90;;;;;;5053319;28;20055;-84
2022/03/09 01:44:39;;;;;;;;;;;-1.20;99.90;;;;;;5053312;28;20500;-84
2022/03/09 01:47:05;;;;;;;;;;;-1.30;99.90;;;;;;5053001;28;20032;-83
2022/03/09 01:49:32;;;;;;;;;;;-1.30;99.90;;;;;;5052847;28;20057;-83
2022/03/09 01:51:58;;;;;;;;;;;-1.30;99.90;;;;;;5053160;28;20007;-83
2022/03/09 01:54:24;;;;;;;;;;;-1.20;99.90;;;;;;5052584;28;20044;-82
2022/03/09 01:56:50;;;;;;;;;;;-1.20;99.90;;;;;;5070638;28;20024;-84
2022/03/09 01:59:16;;;;;;;;;;;-1.20;99.90;;;;;;5052061;28;20057;-83
2022/03/09 02:01:43;;;;;;;;;;;-1.20;99.90;;;;;;5051990;28;20472;-83
2022/03/09 02:04:08;;;;;;;;;;;-1.30;99.90;;;;;;5051504;28;19913;-84
2022/03/09 02:06:36;;;;;;;;;;;-1.30;99.90;;;;;;5052578;28;20045;-83
2022/03/09 02:11:47;;;;;;;;;;;-1.30;99.90;;;;;;5086942;28;19931;-83
2022/03/09 02:14:28;;;;;;;;;;;-1.40;99.90;;;;;;5052975;28;20360;-84
2022/03/09 02:16:54;;;;;;;;;;;-1.40;99.90;;;;;;5068751;28;20096;-84
2022/03/09 02:19:20;;;;;;;;;;;-1.40;99.90;;;;;;5051939;28;20061;-84
2022/03/09 02:21:46;;;;;;;;;;;-1.40;99.90;;;;;;5052356;28;20045;-83
2022/03/09 02:24:12;;;;;;;;;;;-1.50;99.90;;;;;;5085531;28;20426;-81
2022/03/09 02:26:38;;;;;;;;;;;-1.50;99.90;;;;;;5069061;28;20049;-82
2022/03/09 02:29:04;;;;;;;;;;;-1.60;99.90;;;;;;5052520;28;19951;-84
2022/03/09 02:31:29;;;;;;;;;;;-1.80;99.90;;;;;;5052097;28;20062;-83
2022/03/09 02:33:55;;;;;;;;;;;-1.90;99.90;;;;;;5052193;28;20035;-82
2022/03/09 02:36:20;;;;;;;;;;;-2.10;99.90;;;;;;5052749;28;20165;-83
2022/03/09 02:38:46;;;;;;;;;;;-2.20;99.90;;;;;;5070243;28;20051;-84
2022/03/09 02:41:12;;;;;;;;;;;-2.30;99.90;;;;;;5052434;28;20057;-84
2022/03/09 02:43:38;;;;;;;;;;;-2.30;99.90;;;;;;5052899;28;20050;-85
2022/03/09 02:46:03;;;;;;;;;;;-2.30;99.90;;;;;;5052794;28;19912;-84
2022/03/09 02:48:29;;;;;;;;;;;-2.30;99.90;;;;;;5051878;28;19908;-83
2022/03/09 02:50:55;;;;;;;;;;;-2.40;99.90;;;;;;5052058;28;20059;-84
2022/03/09 02:53:20;;;;;;;;;;;-2.50;99.90;;;;;;5052278;28;20052;-83
2022/03/09 02:55:47;;;;;;;;;;;-2.40;99.90;;;;;;5051697;28;20630;-84
2022/03/09 02:58:13;;;;;;;;;;;-2.50;99.90;;;;;;5069808;28;20026;-83
2022/03/09 03:00:38;;;;;;;;;;;-2.50;99.90;;;;;;5051523;28;19915;-84
2022/03/09 03:03:04;;;;;;;;;;;-2.50;99.90;;;;;;5050827;28;20121;-82
2022/03/09 03:05:29;;;;;;;;;;;-2.50;99.90;;;;;;5050236;28;20052;-83
2022/03/09 03:07:55;;;;;;;;;;;-2.50;99.90;;;;;;5050232;28;20504;-83
2022/03/09 03:10:21;;;;;;;;;;;-2.50;99.90;;;;;;5049368;28;19916;-84
2022/03/09 03:12:46;;;;;;;;;;;-2.40;99.90;;;;;;5051076;28;20038;-83
2022/03/09 03:15:12;;;;;;;;;;;-2.40;99.90;;;;;;5051624;28;19912;-83
2022/03/09 03:17:38;;;;;;;;;;;-2.30;99.90;;;;;;5051469;28;19923;-82
2022/03/09 03:20:04;;;;;;;;;;;-2.40;99.90;;;;;;5051119;28;19948;-84
2022/03/09 03:22:30;;;;;;;;;;;-2.40;99.90;;;;;;5069035;28;19904;-83
2022/03/09 03:24:56;;;;;;;;;;;-2.50;99.90;;;;;;5067905;28;20034;-84
2022/03/09 03:27:21;;;;;;;;;;;-2.50;99.90;;;;;;5051500;28;19970;-83
2022/03/09 03:29:47;;;;;;;;;;;-2.50;99.90;;;;;;5067826;28;20046;-84
2022/03/09 03:32:12;;;;;;;;;;;-2.50;99.90;;;;;;5051276;28;19912;-84
2022/03/09 03:34:38;;;;;;;;;;;-2.60;99.90;;;;;;5050857;28;19966;-83
2022/03/09 03:37:04;;;;;;;;;;;-2.70;99.90;;;;;;5068438;28;20492;-82
2022/03/09 03:39:29;;;;;;;;;;;-2.80;99.90;;;;;;5084340;28;20032;-82
2022/03/09 03:41:55;;;;;;;;;;;-2.80;99.90;;;;;;5050930;28;20087;-82
2022/03/09 03:44:21;;;;;;;;;;;-2.80;99.90;;;;;;5051678;28;20100;-83
2022/03/09 03:46:46;;;;;;;;;;;-2.80;99.90;;;;;;5059328;28;20011;-84
2022/03/09 03:49:13;;;;;;;;;;;-2.90;99.90;;;;;;5072471;28;20053;-83
2022/03/09 03:51:39;;;;;;;;;;;-2.90;99.90;;;;;;5066150;28;20063;-84
2022/03/09 03:54:04;;;;;;;;;;;-2.90;99.90;;;;;;5051276;28;20486;-83
2022/03/09 03:56:30;;;;;;;;;;;-3.10;99.90;;;;;;5068713;28;20109;-82
2022/03/09 03:58:56;;;;;;;;;;;-3.10;99.90;;;;;;5050779;28;19912;-82
2022/03/09 04:01:21;;;;;;;;;;;-3.10;99.90;;;;;;5068945;28;19912;-83
2022/03/09 04:03:47;;;;;;;;;;;-3.00;99.90;;;;;;5050866;28;20029;-84
2022/03/09 04:06:13;;;;;;;;;;;-2.90;99.90;;;;;;5051484;28;20092;-83
2022/03/09 04:08:38;;;;;;;;;;;-2.80;99.90;;;;;;5051337;28;20387;-82
2022/03/09 04:11:04;;;;;;;;;;;-2.70;99.90;;;;;;5051668;28;19919;-83
2022/03/09 04:13:30;;;;;;;;;;;-2.50;99.90;;;;;;5084920;28;20548;-83
2022/03/09 04:15:55;;;;;;;;;;;-2.40;99.90;;;;;;5050828;28;20068;-81
2022/03/09 04:18:21;;;;;;;;;;;-2.40;99.90;;;;;;5052443;28;20052;-82
2022/03/09 04:20:47;;;;;;;;;;;-2.40;99.90;;;;;;5051278;28;19917;-84
2022/03/09 04:23:13;;;;;;;;;;;-2.20;99.90;;;;;;5050069;28;20045;-82
2022/03/09 04:25:39;;;;;;;;;;;-2.10;99.90;;;;;;5048999;28;20273;-83
2022/03/09 04:28:06;;;;;;;;;;;-2.00;99.90;;;;;;5049429;28;20478;-83
2022/03/09 04:30:32;;;;;;;;;;;-2.00;99.90;;;;;;5050634;28;20080;-83
2022/03/09 04:32:58;;;;;;;;;;;-2.10;99.90;;;;;;5050265;28;19943;-83
2022/03/09 04:35:24;;;;;;;;;;;-2.20;99.90;;;;;;5084404;28;20064;-83
2022/03/09 04:37:50;;;;;;;;;;;-2.40;99.90;;;;;;5051187;28;20040;-82
2022/03/09 04:40:16;;;;;;;;;;;-2.50;99.90;;;;;;5056422;28;20473;-82
2022/03/09 04:42:42;;;;;;;;;;;-2.70;99.90;;;;;;5051407;28;19972;-84
2022/03/09 04:45:08;;;;;;;;;;;-2.90;99.90;;;;;;5050032;28;20287;-84
2022/03/09 04:47:34;;;;;;;;;;;-2.90;99.90;;;;;;5051007;28;20036;-84
2022/03/09 04:50:00;;;;;;;;;;;-3.00;99.90;;;;;;5054370;28;20067;-83
2022/03/09 04:52:26;;;;;;;;;;;-2.90;99.90;;;;;;5055126;28;20031;-85
2022/03/09 04:54:52;;;;;;;;;;;-2.80;99.90;;;;;;5072590;28;20033;-84
2022/03/09 04:57:18;;;;;;;;;;;-2.60;99.90;;;;;;5053900;28;20045;-84
2022/03/09 04:59:44;;;;;;;;;;;-2.60;99.90;;;;;;5054442;28;20510;-84
2022/03/09 05:02:10;;;;;;;;;;;-2.50;99.90;;;;;;5065598;28;20024;-84
2022/03/09 05:04:35;;;;;;;;;;;-2.50;99.90;;;;;;5053804;28;19912;-84
2022/03/09 05:07:01;;;;;;;;;;;-2.50;99.90;;;;;;5054143;28;20043;-83
2022/03/09 05:09:27;;;;;;;;;;;-2.40;99.90;;;;;;5070355;28;20045;-84
2022/03/09 05:11:54;;;;;;;;;;;-2.40;99.90;;;;;;5053521;28;20046;-83
2022/03/09 05:14:20;;;;;;;;;;;-2.30;99.90;;;;;;5052879;28;20422;-85
2022/03/09 05:16:46;;;;;;;;;;;-2.30;99.90;;;;;;5052660;28;19923;-83
2022/03/09 05:19:11;;;;;;;;;;;-2.40;99.90;;;;;;5053658;28;20035;-83
2022/03/09 05:21:37;;;;;;;;;;;-2.50;99.90;;;;;;5054424;28;20485;-84
2022/03/09 05:24:03;;;;;;;;;;;-2.50;99.90;;;;;;5054644;28;20075;-85
2022/03/09 05:26:28;;;;;;;;;;;-2.50;99.90;;;;;;5054201;28;20495;-85
2022/03/09 05:28:56;;;;;;;;;;;-2.60;99.90;;;;;;5054895;28;19912;-83
2022/03/09 05:31:22;;;;;;;;;;;-2.40;99.90;;;;;;5056856;28;20052;-82
2022/03/09 05:33:47;;;;;;;;;;;-2.40;99.90;;;;;;5070735;28;20827;-83
2022/03/09 05:36:13;;;;;;;;;;;-2.30;99.90;;;;;;5083410;28;20163;-83
2022/03/09 05:38:39;;;;;;;;;;;-2.40;99.90;;;;;;5064619;28;20387;-82
2022/03/09 05:41:05;;;;;;;;;;;-2.40;99.90;;;;;;5054075;28;19916;-83
2022/03/09 05:43:30;;;;;;;;;;;-2.40;99.90;;;;;;5053836;28;20039;-82
2022/03/09 05:45:56;;;;;;;;;;;-2.30;99.90;;;;;;5053548;28;20553;-82
2022/03/09 05:48:23;;;;;;;;;;;-2.40;99.90;;;;;;5053366;28;19919;-83
2022/03/09 05:50:48;;;;;;;;;;;-2.40;99.90;;;;;;5071262;28;20042;-84
2022/03/09 05:53:15;;;;;;;;;;;-2.40;99.90;;;;;;5055409;28;20038;-82
2022/03/09 05:55:40;;;;;;;;;;;-2.50;99.90;;;;;;5055339;28;19916;-83
2022/03/09 05:58:06;;;;;;;;;;;-2.40;99.90;;;;;;5056610;28;20083;-83
2022/03/09 06:00:32;;;;;;;;;;;-2.40;99.90;;;;;;5055788;28;19998;-81
2022/03/09 06:02:57;;;;;;;;;;;-2.40;99.90;;;;;;5056849;28;20051;-83
2022/03/09 06:05:23;;;;;;;;;;;-2.20;99.90;;;;;;5056302;28;20032;-86
2022/03/09 06:07:49;;;;;;;;;;;-2.20;99.90;;;;;;5056219;28;20032;-84
2022/03/09 06:10:15;;;;;;;;;;;-2.20;99.90;;;;;;5072917;28;20028;-83
2022/03/09 06:12:41;;;;;;;;;;;-2.10;99.90;;;;;;5055952;28;20062;-83
2022/03/09 06:15:06;;;;;;;;;;;-2.20;99.90;;;;;;5055544;28;19970;-85
2022/03/09 06:17:32;;;;;;;;;;;-2.00;99.90;;;;;;5056493;28;20055;-84
2022/03/09 06:19:58;;;;;;;;;;;-1.90;99.90;;;;;;5072615;28;20135;-83
2022/03/09 06:22:23;;;;;;;;;;;-1.80;99.90;;;;;;5071872;28;20115;-82
2022/03/09 06:24:49;;;;;;;;;;;-1.70;99.90;;;;;;5071887;28;19919;-82
2022/03/09 06:27:15;;;;;;;;;;;-1.60;99.90;;;;;;5072372;28;19908;-84
2022/03/09 06:29:40;;;;;;;;;;;-1.50;99.90;;;;;;5055410;28;20130;-82
2022/03/09 06:32:06;;;;;;;;;;;-1.50;99.90;;;;;;5055233;28;19914;-83
2022/03/09 06:34:32;;;;;;;;;;;-1.40;99.90;;;;;;5054357;28;19908;-83
2022/03/09 06:36:57;;;;;;;;;;;-1.40;99.90;;;;;;5071878;28;20312;-83
2022/03/09 06:39:25;;;;;;;;;;;-1.40;99.90;;;;;;5072845;28;20042;-83
2022/03/09 06:41:51;;;;;;;;;;;-1.40;99.90;;;;;;5057615;28;19947;-83
2022/03/09 06:44:17;;;;;;;;;;;-1.30;99.90;;;;;;5111127;28;20049;-84
2022/03/09 06:46:43;;;;;;;;;;;-1.20;99.90;;;;;;5092523;28;19934;-83
2022/03/09 06:49:08;;;;;;;;;;;-1.20;99.90;;;;;;5075751;28;19912;-83
2022/03/09 06:51:34;;;;;;;;;;;-1.10;99.90;;;;;;5093393;28;20028;-83
2022/03/09 06:53:59;;;;;;;;;;;-0.90;99.90;;;;;;5073677;28;20053;-84
2022/03/09 06:56:25;;;;;;;;;;;-0.70;99.90;;;;;;5055599;28;19934;-83
2022/03/09 06:58:51;;;;;;;;;;;-0.60;99.90;;;;;;5072277;28;19920;-84
2022/03/09 07:01:18;;;;;;;;;;;-0.50;99.90;;;;;;5055228;28;19915;-83
2022/03/09 07:03:43;;;;;;;;;;;-0.40;99.90;;;;;;5056181;28;20107;-83
2022/03/09 07:06:10;;;;;;;;;;;-0.30;99.90;;;;;;5055470;28;19915;-83
2022/03/09 07:08:36;;;;;;;;;;;-0.10;99.90;;;;;;5055638;28;20034;-83
2022/03/09 07:11:02;;;;;;;;;;;0.20;99.90;;;;;;5055823;28;20088;-84
2022/03/09 07:13:29;;;;;;;;;;;0.20;99.90;;;;;;5060150;28;20051;-83
2022/03/09 07:15:55;;;;;;;;;;;0.50;99.90;;;;;;5054602;28;19922;-84
2022/03/09 07:18:20;;;;;;;;;;;0.60;99.90;;;;;;5055512;28;20295;-84
2022/03/09 07:20:46;;;;;;;;;;;0.70;99.90;;;;;;5072797;28;19994;-82
2022/03/09 07:23:12;;;;;;;;;;;0.70;99.90;;;;;;5056277;28;20450;-83
2022/03/09 07:25:38;;;;;;;;;;;0.80;99.90;;;;;;5071395;28;20056;-84
2022/03/09 07:28:05;;;;;;;;;;;0.90;99.90;;;;;;5054790;28;20007;-83
2022/03/09 07:30:31;;;;;;;;;;;1.00;99.90;;;;;;5073067;28;19962;-82
2022/03/09 07:32:57;;;;;;;;;;;1.00;99.90;;;;;;5055707;28;19943;-83
2022/03/09 07:35:22;;;;;;;;;;;1.00;99.90;;;;;;5072436;28;19994;-84
2022/03/09 07:37:51;;;;;;;;;;;1.10;99.90;;;;;;5071674;28;20355;-83
2022/03/09 07:40:17;;;;;;;;;;;1.10;99.90;;;;;;5071042;28;20097;-81
2022/03/09 07:42:43;;;;;;;;;;;1.20;99.90;;;;;;5070638;28;20039;-83
2022/03/09 07:45:09;;;;;;;;;;;1.20;99.90;;;;;;5054328;28;19912;-84
2022/03/09 07:47:35;;;;;;;;;;;1.30;99.90;;;;;;5054933;28;20055;-83
2022/03/09 07:50:01;;;;;;;;;;;1.40;99.90;;;;;;5089100;28;20134;-82
2022/03/09 07:52:27;;;;;;;;;;;1.40;99.90;;;;;;5089077;28;20058;-83
2022/03/09 07:54:52;;;;;;;;;;;1.50;99.90;;;;;;5071466;28;20732;-84
2022/03/09 07:57:18;;;;;;;;;;;1.50;99.90;;;;;;5070889;28;19919;-84
2022/03/09 07:59:44;;;;;;;;;;;1.60;99.90;;;;;;5055090;28;20054;-81
2022/03/09 08:02:09;;;;;;;;;;;1.60;99.90;;;;;;5054733;28;19912;-83
2022/03/09 08:04:35;;;;;;;;;;;1.70;99.90;;;;;;5092548;28;19943;-82
2022/03/09 08:07:00;;;;;;;;;;;1.70;99.90;;;;;;5054190;28;20110;-83
2022/03/09 08:09:26;;;;;;;;;;;1.80;99.90;;;;;;5070687;28;19954;-83
2022/03/09 08:11:52;;;;;;;;;;;1.90;99.90;;;;;;5053794;28;20413;-83
2022/03/09 08:14:18;;;;;;;;;;;2.00;99.90;;;;;;5070951;28;19948;-85
2022/03/09 08:16:44;;;;;;;;;;;2.00;99.90;;;;;;5053956;28;20057;-83
2022/03/09 08:19:09;;;;;;;;;;;2.10;99.90;;;;;;5053397;28;20056;-82
2022/03/09 08:21:35;;;;;;;;;;;2.20;99.90;;;;;;5053706;28;20042;-83
2022/03/09 08:24:01;;;;;;;;;;;2.20;99.90;;;;;;5055900;28;20375;-84
2022/03/09 08:26:26;;;;;;;;;;;2.30;99.90;;;;;;5074082;28;20014;-83
2022/03/09 08:28:52;;;;;;;;;;;2.30;99.90;;;;;;5074637;28;19965;-83
2022/03/09 08:31:17;;;;;;;;;;;2.40;99.90;;;;;;5056823;28;20081;-84
2022/03/09 08:33:43;;;;;;;;;;;2.40;99.90;;;;;;5056267;28;20464;-84
2022/03/09 08:36:11;;;;;;;;;;;2.40;99.90;;;;;;5057481;28;19918;-85
2022/03/09 08:38:36;;;;;;;;;;;2.40;99.90;;;;;;5056658;28;19959;-84
2022/03/09 08:41:02;;;;;;;;;;;2.40;99.90;;;;;;5056909;28;19951;-82
2022/03/09 08:43:28;;;;;;;;;;;2.40;99.90;;;;;;5092003;28;20780;-84
2022/03/09 08:45:56;;;;;;;;;;;2.40;99.90;;;;;;5057197;28;20065;-84
2022/03/09 08:48:26;;;;;;;;;;;2.50;99.90;;;;;;5056972;28;20046;-85
2022/03/09 08:50:52;;;;;;;;;;;2.60;99.90;;;;;;5074493;28;20046;-84
2022/03/09 08:53:18;;;;;;;;;;;2.70;99.90;;;;;;5057375;28;20061;-84
2022/03/09 08:55:43;;;;;;;;;;;2.90;99.90;;;;;;5056849;28;20064;-85
2022/03/09 08:58:09;;;;;;;;;;;2.90;99.90;;;;;;5064765;28;20061;-84
2022/03/09 09:00:35;;;;;;;;;;;2.90;99.90;;;;;;5073712;28;19908;-84
2022/03/09 09:03:01;;;;;;;;;;;2.90;99.90;;;;;;5057706;28;20345;-84
2022/03/09 09:05:26;;;;;;;;;;;3.00;99.90;;;;;;5056967;28;19915;-84
2022/03/09 09:07:52;;;;;;;;;;;3.20;99.90;;;;;;5077513;28;20073;-84
2022/03/09 09:10:18;;;;;;;;;;;3.30;99.90;;;;;;5079981;28;20284;-85
2022/03/09 09:12:46;;;;;;;;;;;3.30;99.90;;;;;;5079652;28;20056;-84
2022/03/09 09:15:11;;;;;;;;;;;3.30;99.90;;;;;;5059901;28;20387;-85
2022/03/09 09:17:37;;;;;;;;;;;3.60;99.90;;;;;;5059558;28;19916;-85
2022/03/09 09:20:03;;;;;;;;;;;4.30;99.90;;;;;;5073087;28;20754;-84
2022/03/09 09:22:29;;;;;;;;;;;5.00;99.90;;;;;;5056422;28;20036;-84
2022/03/09 09:24:55;;;;;;;;;;;5.40;99.60;;;;;;5061037;28;19920;-82
2022/03/09 09:27:20;;;;;;;;;;;5.90;98.00;;;;;;5074569;28;19912;-85
2022/03/09 09:29:46;;;;;;;;;;;5.80;97.20;;;;;;5056228;28;19950;-82
2022/03/09 09:32:13;;;;;;;;;;;6.30;95.40;;;;;;5056499;28;19919;-84
2022/03/09 09:34:40;;;;;;;;;;;6.60;94.10;;;;;;5072151;28;20280;-85
2022/03/09 09:37:07;;;;;;;;;;;7.00;92.80;;;;;;5090356;28;19915;-85
2022/03/09 09:39:32;;;;;;;;;;;7.10;91.10;;;;;;5055545;28;19916;-84
2022/03/09 09:41:58;;;;;;;;;;;7.30;89.50;;;;;;5072840;28;20039;-86
2022/03/09 09:44:24;;;;;;;;;;;8.10;86.00;;;;;;5074531;28;20478;-84
2022/03/09 09:46:50;;;;;;;;;;;8.30;80.20;;;;;;5054498;28;20544;-85
2022/03/09 09:49:16;;;;;;;;;;;8.00;80.90;;;;;;5070878;28;20072;-85
2022/03/09 09:51:44;;;;;;;;;;;8.60;78.90;;;;;;5056349;28;19958;-84
2022/03/09 09:54:13;;;;;;;;;;;9.50;76.90;;;;;;5055119;28;20055;-86
2022/03/09 09:56:40;;;;;;;;;;;9.70;73.10;;;;;;5072639;28;19926;-83
2022/03/09 09:59:07;;;;;;;;;;;10.40;70.60;;;;;;5056643;28;19919;-82
2022/03/09 10:01:32;;;;;;;;;;;10.40;67.70;;;;;;5056132;28;20132;-84
2022/03/09 10:03:58;;;;;;;;;;;10.40;63.90;;;;;;5060294;28;20066;-85
2022/03/09 10:06:24;;;;;;;;;;;10.30;64.90;;;;;;5056882;28;19918;-85
2022/03/09 10:09:05;;;;;;;;;;;10.50;65.60;;;;;;5056041;28;20042;-83
2022/03/09 10:11:51;;;;;;;;;;;11.30;65.70;;;;;;5055256;28;20357;-85
2022/03/09 10:14:35;;;;;;;;;;;11.20;63.70;;;;;;5057013;28;20258;-85
2022/03/09 10:17:02;;;;;;;;;;;11.70;64.20;;;;;;5057314;28;19959;-86
2022/03/09 10:19:28;;;;;;;;;;;11.70;62.30;;;;;;5059657;28;19919;-83
2022/03/09 10:21:54;;;;;;;;;;;11.60;62.10;;;;;;5057507;28;19908;-85
2022/03/09 10:24:32;;;;;;;;;;;10.70;62.00;;;;;;5061144;28;20097;-86
2022/03/09 10:27:00;;;;;;;;;;;10.60;64.70;;;;;;5073813;28;19908;-85
2022/03/09 10:29:26;;;;;;;;;;;10.20;64.90;;;;;;5056252;28;19914;-85
2022/03/09 10:31:51;;;;;;;;;;;10.50;63.70;;;;;;5076146;28;19920;-85
2022/03/09 10:34:24;;;;;;;;;;;10.20;64.40;;;;;;5097025;28;19903;-83
2022/03/09 10:36:53;;;;;;;;;;;10.30;65.30;;;;;;5080273;28;24070;-85
2022/03/09 10:39:19;;;;;;;;;;;10.00;65.40;;;;;;5079758;28;19927;-84
2022/03/09 10:41:45;;;;;;;;;;;10.20;63.50;;;;;;5081246;28;19908;-86
2022/03/09 10:44:11;;;;;;;;;;;10.50;63.10;;;;;;5080489;28;20241;-85
2022/03/09 10:46:45;;;;;;;;;;;10.50;61.70;;;;;;5092875;28;24062;-85
2022/03/09 10:49:14;;;;;;;;;;;10.70;62.80;;;;;;5097249;28;19911;-86
2022/03/09 10:51:44;;;;;;;;;;;10.40;63.20;;;;;;5082372;28;19912;-86
2022/03/09 10:54:12;;;;;;;;;;;10.50;64.00;;;;;;5055254;28;25151;-85
2022/03/09 10:56:38;;;;;;;;;;;10.60;63.80;;;;;;5055705;28;19954;-85
2022/03/09 10:59:08;;;;;;;;;;;11.20;63.40;;;;;;5056499;28;19920;-85
2022/03/09 11:01:34;;;;;;;;;;;11.40;62.00;;;;;;5056127;28;20275;-85
2022/03/09 11:04:08;;;;;;;;;;;11.40;59.80;;;;;;5072039;28;19919;-85
2022/03/09 11:06:35;;;;;;;;;;;11.20;61.50;;;;;;5071491;28;19920;-85
2022/03/09 11:09:01;;;;;;;;;;;11.60;60.70;;;;;;5054966;28;20402;-84
2022/03/09 11:11:27;;;;;;;;;;;11.70;59.10;;;;;;5055549;28;19954;-84
2022/03/09 11:13:53;;;;;;;;;;;11.10;60.30;;;;;;5055073;28;24073;-85
2022/03/09 11:16:19;;;;;;;;;;;11.60;60.40;;;;;;5090344;28;19941;-84
2022/03/09 11:18:45;;;;;;;;;;;12.10;58.00;;;;;;5055408;28;19920;-84
2022/03/09 11:21:10;;;;;;;;;;;12.00;58.20;;;;;;5055170;28;19936;-85
2022/03/09 11:23:40;;;;;;;;;;;11.00;58.90;;;;;;5071840;28;19908;-85
2022/03/09 11:26:17;;;;;;;;;;;11.10;59.40;;;;;;5055256;28;20479;-84
2022/03/09 11:28:43;;;;;;;;;;;11.50;59.20;;;;;;5055246;28;19912;-86
2022/03/09 11:31:11;;;;;;;;;;;11.70;58.80;;;;;;5054894;28;19919;-84
2022/03/09 11:33:37;;;;;;;;;;;12.10;58.60;;;;;;5071929;28;19995;-86
2022/03/09 11:36:23;;;;;;;;;;;11.80;58.60;;;;;;5072127;28;20037;-84
2022/03/09 11:38:57;;;;;;;;;;;11.70;58.00;;;;;;5055621;28;20004;-84
2022/03/09 11:41:24;;;;;;;;;;;11.80;57.80;;;;;;5055310;28;19998;-83
2022/03/09 11:43:51;;;;;;;;;;;12.00;58.40;;;;;;5054628;28;19912;-85
2022/03/09 11:46:17;;;;;;;;;;;12.50;58.80;;;;;;5055383;28;20410;-84
2022/03/09 11:48:49;;;;;;;;;;;12.30;58.00;;;;;;5061641;28;19911;-84
2022/03/09 11:51:14;;;;;;;;;;;12.70;57.70;;;;;;5074466;28;20364;-85
2022/03/09 11:53:48;;;;;;;;;;;13.40;55.90;;;;;;5055872;28;19912;-85
2022/03/09 11:56:20;;;;;;;;;;;13.90;55.50;;;;;;5055116;28;25055;-84
2022/03/09 11:59:05;;;;;;;;;;;13.40;54.80;;;;;;5092571;28;20364;-85
2022/03/09 12:01:30;;;;;;;;;;;13.30;54.60;;;;;;5076442;28;19962;-85
2022/03/09 12:03:56;;;;;;;;;;;12.50;54.10;;;;;;5059858;28;19912;-86
2022/03/09 12:06:52;;;;;;;;;;;13.10;54.50;;;;;;5064080;28;20376;-88
2022/03/09 12:09:38;;;;;;;;;;;13.60;54.30;;;;;;5053143;28;24074;-85
2022/03/09 12:12:10;;;;;;;;;;;14.20;54.00;;;;;;5058841;28;19912;-85
2022/03/09 12:14:54;;;;;;;;;;;14.60;53.00;;;;;;5059291;28;19996;-85
2022/03/09 12:17:37;;;;;;;;;;;13.90;53.40;;;;;;5076087;28;20371;-86
2022/03/09 12:20:21;;;;;;;;;;;13.00;55.20;;;;;;5059007;28;19926;-85
2022/03/09 12:22:56;;;;;;;;;;;13.20;55.30;;;;;;5058767;28;20364;-85
2022/03/09 12:25:39;;;;;;;;;;;13.10;55.10;;;;;;5074166;28;20382;-84
2022/03/09 12:30:57;;;;;;;;;;;13.20;55.60;;;;;;5075149;28;19912;-85
2022/03/09 12:33:33;;;;;;;;;;;12.80;55.90;;;;;;5075845;28;24067;-85
2022/03/09 12:36:09;;;;;;;;;;;13.30;56.50;;;;;;5076802;28;19916;-85
2022/03/09 12:38:35;;;;;;;;;;;13.30;54.00;;;;;;5061810;28;19923;-85
2022/03/09 12:41:01;;;;;;;;;;;12.90;55.40;;;;;;5092984;28;24082;-84
2022/03/09 12:43:40;;;;;;;;;;;12.90;54.30;;;;;;5074987;28;19995;-85
2022/03/09 12:46:06;;;;;;;;;;;12.50;55.00;;;;;;5075274;28;19919;-84
2022/03/09 12:48:37;;;;;;;;;;;12.20;55.50;;;;;;5058048;28;19916;-84
2022/03/09 12:51:04;;;;;;;;;;;12.00;54.80;;;;;;5074095;28;20359;-85
2022/03/09 12:53:29;;;;;;;;;;;11.90;54.50;;;;;;5057616;28;19912;-85
2022/03/09 12:55:55;;;;;;;;;;;11.60;55.80;;;;;;5056992;28;20588;-85
2022/03/09 12:58:22;;;;;;;;;;;11.90;56.70;;;;;;5073596;28;19924;-85
2022/03/09 13:00:47;;;;;;;;;;;12.40;55.40;;;;;;5058161;28;19912;-84
2022/03/09 13:03:13;;;;;;;;;;;12.10;54.00;;;;;;5057952;28;19919;-85
2022/03/09 13:05:39;;;;;;;;;;;11.60;55.70;;;;;;5057637;28;24081;-85
2022/03/09 13:08:08;;;;;;;;;;;11.40;56.10;;;;;;5074442;28;19930;-85
2022/03/09 13:10:48;;;;;;;;;;;11.30;56.50;;;;;;5076370;28;24071;-84
2022/03/09 13:13:14;;;;;;;;;;;11.10;56.10;;;;;;5058001;28;20011;-85
2022/03/09 13:15:45;;;;;;;;;;;11.40;56.10;;;;;;5057405;28;20420;-85
2022/03/09 13:18:12;;;;;;;;;;;11.90;55.50;;;;;;5057329;28;19923;-85
2022/03/09 13:20:38;;;;;;;;;;;11.80;54.70;;;;;;5092427;28;19954;-86
2022/03/09 13:23:22;;;;;;;;;;;11.60;54.70;;;;;;5057226;28;20445;-84
2022/03/09 13:25:48;;;;;;;;;;;10.90;55.70;;;;;;5074507;28;19912;-85
2022/03/09 13:28:13;;;;;;;;;;;10.40;57.00;;;;;;5066948;28;19992;-85
2022/03/09 13:30:39;;;;;;;;;;;10.10;57.60;;;;;;5065955;28;19912;-85
2022/03/09 13:33:10;;;;;;;;;;;9.80;58.00;;;;;;5100816;28;19912;-85
2022/03/09 13:35:45;;;;;;;;;;;9.70;59.50;;;;;;5071994;28;20081;-85
2022/03/09 13:38:11;;;;;;;;;;;9.70;60.00;;;;;;5072149;28;20749;-83
2022/03/09 13:40:43;;;;;;;;;;;9.60;58.80;;;;;;5053207;28;19931;-85
2022/03/09 13:43:10;;;;;;;;;;;9.60;59.10;;;;;;5086727;28;19974;-85
2022/03/09 13:45:40;;;;;;;;;;;9.50;58.80;;;;;;5093922;28;20069;-84
2022/03/09 13:48:08;;;;;;;;;;;9.40;57.90;;;;;;5075910;28;20052;-84
2022/03/09 13:50:34;;;;;;;;;;;9.40;58.90;;;;;;5058528;28;19908;-86
2022/03/09 13:53:09;;;;;;;;;;;9.40;58.70;;;;;;5056764;28;19908;-84
2022/03/09 13:55:42;;;;;;;;;;;9.40;58.70;;;;;;5066782;28;20044;-83
2022/03/09 13:58:13;;;;;;;;;;;9.40;58.00;;;;;;5093271;28;20049;-84
2022/03/09 14:00:40;;;;;;;;;;;9.40;58.50;;;;;;5076164;28;19934;-84
2022/03/09 14:03:07;;;;;;;;;;;9.30;58.60;;;;;;5111139;28;19994;-86
2022/03/09 14:05:33;;;;;;;;;;;9.40;58.10;;;;;;5075922;28;20120;-85
2022/03/09 14:07:59;;;;;;;;;;;9.40;58.30;;;;;;5093059;28;20042;-84
2022/03/09 14:10:32;;;;;;;;;;;9.40;60.30;;;;;;5076137;28;19911;-86
2022/03/09 14:13:05;;;;;;;;;;;9.40;58.50;;;;;;5069226;28;20006;-85
2022/03/09 14:15:32;;;;;;;;;;;9.40;58.30;;;;;;5086031;28;19969;-83
2022/03/09 14:18:00;;;;;;;;;;;9.30;58.30;;;;;;5069263;28;19904;-84
2022/03/09 14:20:26;;;;;;;;;;;9.30;58.20;;;;;;5084919;28;19912;-85
2022/03/09 14:22:51;;;;;;;;;;;9.30;59.00;;;;;;5085986;28;20273;-85
2022/03/09 14:25:20;;;;;;;;;;;9.30;59.50;;;;;;5056870;28;20444;-85